sensor_id;sensor_type;location;lat;lon;timestamp;P1;durP1;ratioP1;P2;durP2;ratioP2
63008;SDS011;49099;28.428;-16.488;2022-09-09T00:04:37;5.93;;;1.70;;
63008;SDS011;49099;28.428;-16.488;2022-09-09T00:09:46;7.95;;;1.50;;
63008;SDS011;49099;28.428;-16.488;2022-09-09T00:12:25;8.45;;;1.42;;
63008;SDS011;49099;28.428;-16.488;2022-09-09T00:15:14;6.90;;;1.23;;
63008;SDS011;49099;28.428;-16.488;2022-09-09T00:20:28;8.23;;;1.77;;
63008;SDS011;49099;28.428;-16.488;2022-09-09T00:23:10;11.20;;;1.83;;
63008;SDS011;49099;28.428;-16.488;2022-09-09T00:28:41;11.00;;;1.63;;
63008;SDS011;49099;28.428;-16.488;2022-09-09T00:31:16;9.85;;;1.85;;
63008;SDS011;49099;28.428;-16.488;2022-09-09T00:33:49;7.47;;;1.60;;
63008;SDS011;49099;28.428;-16.488;2022-09-09T00:36:21;4.88;;;1.35;;
63008;SDS011;49099;28.428;-16.488;2022-09-09T00:38:59;8.25;;;1.27;;
63008;SDS011;49099;28.428;-16.488;2022-09-09T00:57:59;10.93;;;2.25;;
63008;SDS011;49099;28.428;-16.488;2022-09-09T01:00:30;6.60;;;1.40;;
63008;SDS011;49099;28.428;-16.488;2022-09-09T01:17:14;15.52;;;2.17;;
63008;SDS011;49099;28.428;-16.488;2022-09-09T01:20:08;15.27;;;2.50;;
63008;SDS011;49099;28.428;-16.488;2022-09-09T01:23:03;11.52;;;2.17;;
63008;SDS011;49099;28.428;-16.488;2022-09-09T01:28:31;8.15;;;1.92;;
63008;SDS011;49099;28.428;-16.488;2022-09-09T01:31:03;7.57;;;1.60;;
63008;SDS011;49099;28.428;-16.488;2022-09-09T01:33:33;9.43;;;1.80;;
63008;SDS011;49099;28.428;-16.488;2022-09-09T01:36:01;9.90;;;1.60;;
63008;SDS011;49099;28.428;-16.488;2022-09-09T01:38:37;7.05;;;1.27;;
63008;SDS011;49099;28.428;-16.488;2022-09-09T01:41:04;6.10;;;1.30;;
63008;SDS011;49099;28.428;-16.488;2022-09-09T01:43:43;5.03;;;1.05;;
63008;SDS011;49099;28.428;-16.488;2022-09-09T01:46:10;3.72;;;0.77;;
63008;SDS011;49099;28.428;-16.488;2022-09-09T01:48:39;3.22;;;0.80;;
63008;SDS011;49099;28.428;-16.488;2022-09-09T01:51:08;3.92;;;1.08;;
63008;SDS011;49099;28.428;-16.488;2022-09-09T01:53:37;4.55;;;0.90;;
63008;SDS011;49099;28.428;-16.488;2022-09-09T01:56:18;3.80;;;0.70;;
63008;SDS011;49099;28.428;-16.488;2022-09-09T01:59:01;5.95;;;0.80;;
63008;SDS011;49099;28.428;-16.488;2022-09-09T02:04:22;3.97;;;0.70;;
63008;SDS011;49099;28.428;-16.488;2022-09-09T02:06:50;8.93;;;1.52;;
63008;SDS011;49099;28.428;-16.488;2022-09-09T02:09:25;10.48;;;1.70;;
63008;SDS011;49099;28.428;-16.488;2022-09-09T02:11:55;9.90;;;1.65;;
63008;SDS011;49099;28.428;-16.488;2022-09-09T02:14:35;8.68;;;1.70;;
63008;SDS011;49099;28.428;-16.488;2022-09-09T02:17:09;6.28;;;1.40;;
63008;SDS011;49099;28.428;-16.488;2022-09-09T02:19:58;7.35;;;1.90;;
63008;SDS011;49099;28.428;-16.488;2022-09-09T02:25:01;8.52;;;1.70;;
63008;SDS011;49099;28.428;-16.488;2022-09-09T02:27:31;8.13;;;1.80;;
63008;SDS011;49099;28.428;-16.488;2022-09-09T02:29:59;7.55;;;1.30;;
63008;SDS011;49099;28.428;-16.488;2022-09-09T02:32:28;8.32;;;1.95;;
63008;SDS011;49099;28.428;-16.488;2022-09-09T02:35:00;5.30;;;1.20;;
63008;SDS011;49099;28.428;-16.488;2022-09-09T02:37:41;5.00;;;1.20;;
63008;SDS011;49099;28.428;-16.488;2022-09-09T02:40:13;6.57;;;1.05;;
63008;SDS011;49099;28.428;-16.488;2022-09-09T02:42:45;7.68;;;1.77;;
63008;SDS011;49099;28.428;-16.488;2022-09-09T02:45:15;4.00;;;1.05;;
63008;SDS011;49099;28.428;-16.488;2022-09-09T02:55:53;4.38;;;1.00;;
63008;SDS011;49099;28.428;-16.488;2022-09-09T02:58:24;4.35;;;1.20;;
63008;SDS011;49099;28.428;-16.488;2022-09-09T03:00:52;5.15;;;1.23;;
63008;SDS011;49099;28.428;-16.488;2022-09-09T03:03:20;4.22;;;1.00;;
63008;SDS011;49099;28.428;-16.488;2022-09-09T03:05:48;4.18;;;0.90;;
63008;SDS011;49099;28.428;-16.488;2022-09-09T03:08:15;5.15;;;0.90;;
63008;SDS011;49099;28.428;-16.488;2022-09-09T03:10:43;2.10;;;0.82;;
63008;SDS011;49099;28.428;-16.488;2022-09-09T03:13:25;3.22;;;1.00;;
63008;SDS011;49099;28.428;-16.488;2022-09-09T03:15:52;4.75;;;0.90;;
63008;SDS011;49099;28.428;-16.488;2022-09-09T03:18:19;6.88;;;2.00;;
63008;SDS011;49099;28.428;-16.488;2022-09-09T03:20:46;8.95;;;1.58;;
63008;SDS011;49099;28.428;-16.488;2022-09-09T03:23:17;3.90;;;1.10;;
63008;SDS011;49099;28.428;-16.488;2022-09-09T03:25:47;6.70;;;1.23;;
63008;SDS011;49099;28.428;-16.488;2022-09-09T03:28:18;4.93;;;1.02;;
63008;SDS011;49099;28.428;-16.488;2022-09-09T03:30:47;4.38;;;1.10;;
63008;SDS011;49099;28.428;-16.488;2022-09-09T03:33:14;4.72;;;1.40;;
63008;SDS011;49099;28.428;-16.488;2022-09-09T03:35:46;6.22;;;1.20;;
63008;SDS011;49099;28.428;-16.488;2022-09-09T03:38:15;5.72;;;0.90;;
63008;SDS011;49099;28.428;-16.488;2022-09-09T03:40:49;5.78;;;1.13;;
63008;SDS011;49099;28.428;-16.488;2022-09-09T03:43:18;4.20;;;1.02;;
63008;SDS011;49099;28.428;-16.488;2022-09-09T03:45:46;4.68;;;1.00;;
63008;SDS011;49099;28.428;-16.488;2022-09-09T03:48:15;2.58;;;0.93;;
63008;SDS011;49099;28.428;-16.488;2022-09-09T03:50:46;3.20;;;0.70;;
63008;SDS011;49099;28.428;-16.488;2022-09-09T03:53:15;2.92;;;0.90;;
63008;SDS011;49099;28.428;-16.488;2022-09-09T03:55:49;3.85;;;0.82;;
63008;SDS011;49099;28.428;-16.488;2022-09-09T03:58:24;5.57;;;1.70;;
63008;SDS011;49099;28.428;-16.488;2022-09-09T04:00:57;4.38;;;1.10;;
63008;SDS011;49099;28.428;-16.488;2022-09-09T04:03:29;8.35;;;1.38;;
63008;SDS011;49099;28.428;-16.488;2022-09-09T04:05:57;6.47;;;1.40;;
63008;SDS011;49099;28.428;-16.488;2022-09-09T04:08:25;5.68;;;1.30;;
63008;SDS011;49099;28.428;-16.488;2022-09-09T04:10:53;12.70;;;1.95;;
63008;SDS011;49099;28.428;-16.488;2022-09-09T04:13:25;9.23;;;1.60;;
63008;SDS011;49099;28.428;-16.488;2022-09-09T04:15:59;9.90;;;1.92;;
63008;SDS011;49099;28.428;-16.488;2022-09-09T04:18:28;9.23;;;1.80;;
63008;SDS011;49099;28.428;-16.488;2022-09-09T04:20:55;9.90;;;1.70;;
63008;SDS011;49099;28.428;-16.488;2022-09-09T04:23:26;6.13;;;1.42;;
63008;SDS011;49099;28.428;-16.488;2022-09-09T04:25:55;6.85;;;1.45;;
63008;SDS011;49099;28.428;-16.488;2022-09-09T04:28:24;4.85;;;1.15;;
63008;SDS011;49099;28.428;-16.488;2022-09-09T04:30:53;6.15;;;1.30;;
63008;SDS011;49099;28.428;-16.488;2022-09-09T04:33:20;4.90;;;1.20;;
63008;SDS011;49099;28.428;-16.488;2022-09-09T04:35:48;6.97;;;1.20;;
63008;SDS011;49099;28.428;-16.488;2022-09-09T04:38:17;5.80;;;1.20;;
63008;SDS011;49099;28.428;-16.488;2022-09-09T04:40:47;4.50;;;1.10;;
63008;SDS011;49099;28.428;-16.488;2022-09-09T04:43:16;5.35;;;1.20;;
63008;SDS011;49099;28.428;-16.488;2022-09-09T04:45:43;3.35;;;1.00;;
63008;SDS011;49099;28.428;-16.488;2022-09-09T04:48:13;4.07;;;1.15;;
63008;SDS011;49099;28.428;-16.488;2022-09-09T04:50:40;3.53;;;0.93;;
63008;SDS011;49099;28.428;-16.488;2022-09-09T04:53:07;2.85;;;0.80;;
63008;SDS011;49099;28.428;-16.488;2022-09-09T04:55:34;5.45;;;1.00;;
63008;SDS011;49099;28.428;-16.488;2022-09-09T04:58:05;3.25;;;0.90;;
63008;SDS011;49099;28.428;-16.488;2022-09-09T05:00:34;3.35;;;0.93;;
63008;SDS011;49099;28.428;-16.488;2022-09-09T05:03:03;3.60;;;0.90;;
63008;SDS011;49099;28.428;-16.488;2022-09-09T05:05:35;3.33;;;0.88;;
63008;SDS011;49099;28.428;-16.488;2022-09-09T05:08:03;3.92;;;1.00;;
63008;SDS011;49099;28.428;-16.488;2022-09-09T05:10:31;5.32;;;1.08;;
63008;SDS011;49099;28.428;-16.488;2022-09-09T05:12:59;2.22;;;0.70;;
63008;SDS011;49099;28.428;-16.488;2022-09-09T05:15:27;4.38;;;0.85;;
63008;SDS011;49099;28.428;-16.488;2022-09-09T05:17:58;3.50;;;0.90;;
63008;SDS011;49099;28.428;-16.488;2022-09-09T05:20:26;5.90;;;0.82;;
63008;SDS011;49099;28.428;-16.488;2022-09-09T05:22:55;1.63;;;0.60;;
63008;SDS011;49099;28.428;-16.488;2022-09-09T05:25:23;4.15;;;0.85;;
63008;SDS011;49099;28.428;-16.488;2022-09-09T05:27:53;2.53;;;0.88;;
63008;SDS011;49099;28.428;-16.488;2022-09-09T05:30:21;2.65;;;0.70;;
63008;SDS011;49099;28.428;-16.488;2022-09-09T05:32:49;2.67;;;0.70;;
63008;SDS011;49099;28.428;-16.488;2022-09-09T05:35:16;2.22;;;0.70;;
63008;SDS011;49099;28.428;-16.488;2022-09-09T05:37:45;2.55;;;0.90;;
63008;SDS011;49099;28.428;-16.488;2022-09-09T05:40:12;3.53;;;0.85;;
63008;SDS011;49099;28.428;-16.488;2022-09-09T05:42:40;2.08;;;0.70;;
63008;SDS011;49099;28.428;-16.488;2022-09-09T05:45:08;2.42;;;0.80;;
63008;SDS011;49099;28.428;-16.488;2022-09-09T05:47:36;4.40;;;0.75;;
63008;SDS011;49099;28.428;-16.488;2022-09-09T05:50:03;3.35;;;0.90;;
63008;SDS011;49099;28.428;-16.488;2022-09-09T05:52:31;2.38;;;0.75;;
63008;SDS011;49099;28.428;-16.488;2022-09-09T05:54:59;3.83;;;1.10;;
63008;SDS011;49099;28.428;-16.488;2022-09-09T05:57:26;2.40;;;0.75;;
63008;SDS011;49099;28.428;-16.488;2022-09-09T05:59:53;2.88;;;0.90;;
63008;SDS011;49099;28.428;-16.488;2022-09-09T06:02:20;5.05;;;0.90;;
63008;SDS011;49099;28.428;-16.488;2022-09-09T06:04:47;3.38;;;0.80;;
63008;SDS011;49099;28.428;-16.488;2022-09-09T06:07:15;4.78;;;1.10;;
63008;SDS011;49099;28.428;-16.488;2022-09-09T06:09:42;3.38;;;1.00;;
63008;SDS011;49099;28.428;-16.488;2022-09-09T06:12:09;1.92;;;0.95;;
63008;SDS011;49099;28.428;-16.488;2022-09-09T06:14:36;4.80;;;1.27;;
63008;SDS011;49099;28.428;-16.488;2022-09-09T06:17:05;5.13;;;1.42;;
63008;SDS011;49099;28.428;-16.488;2022-09-09T06:19:33;10.80;;;1.30;;
63008;SDS011;49099;28.428;-16.488;2022-09-09T06:22:00;5.22;;;1.23;;
63008;SDS011;49099;28.428;-16.488;2022-09-09T06:24:27;5.90;;;1.20;;
63008;SDS011;49099;28.428;-16.488;2022-09-09T06:26:56;5.35;;;1.30;;
63008;SDS011;49099;28.428;-16.488;2022-09-09T06:29:24;4.70;;;1.10;;
63008;SDS011;49099;28.428;-16.488;2022-09-09T06:31:51;3.90;;;1.20;;
63008;SDS011;49099;28.428;-16.488;2022-09-09T06:34:19;3.67;;;1.00;;
63008;SDS011;49099;28.428;-16.488;2022-09-09T06:36:46;7.22;;;1.20;;
63008;SDS011;49099;28.428;-16.488;2022-09-09T06:39:13;5.88;;;1.15;;
63008;SDS011;49099;28.428;-16.488;2022-09-09T06:41:42;11.73;;;1.60;;
63008;SDS011;49099;28.428;-16.488;2022-09-09T06:44:09;5.32;;;1.30;;
63008;SDS011;49099;28.428;-16.488;2022-09-09T06:46:38;7.90;;;1.33;;
63008;SDS011;49099;28.428;-16.488;2022-09-09T06:49:07;5.57;;;1.20;;
63008;SDS011;49099;28.428;-16.488;2022-09-09T06:51:35;5.60;;;1.20;;
63008;SDS011;49099;28.428;-16.488;2022-09-09T06:54:09;9.60;;;1.40;;
63008;SDS011;49099;28.428;-16.488;2022-09-09T06:56:38;5.45;;;1.48;;
63008;SDS011;49099;28.428;-16.488;2022-09-09T06:59:09;8.98;;;1.60;;
63008;SDS011;49099;28.428;-16.488;2022-09-09T07:01:39;7.65;;;1.55;;
63008;SDS011;49099;28.428;-16.488;2022-09-09T07:04:08;6.57;;;1.40;;
63008;SDS011;49099;28.428;-16.488;2022-09-09T07:06:39;6.80;;;1.52;;
63008;SDS011;49099;28.428;-16.488;2022-09-09T07:11:41;4.65;;;1.65;;
63008;SDS011;49099;28.428;-16.488;2022-09-09T07:14:10;5.20;;;1.30;;
63008;SDS011;49099;28.428;-16.488;2022-09-09T07:16:41;5.32;;;1.13;;
63008;SDS011;49099;28.428;-16.488;2022-09-09T07:19:10;5.00;;;1.15;;
63008;SDS011;49099;28.428;-16.488;2022-09-09T07:21:38;4.78;;;1.35;;
63008;SDS011;49099;28.428;-16.488;2022-09-09T07:24:07;4.20;;;0.95;;
63008;SDS011;49099;28.428;-16.488;2022-09-09T07:26:37;3.83;;;1.10;;
63008;SDS011;49099;28.428;-16.488;2022-09-09T07:29:05;4.80;;;0.80;;
63008;SDS011;49099;28.428;-16.488;2022-09-09T07:31:35;5.57;;;1.23;;
63008;SDS011;49099;28.428;-16.488;2022-09-09T07:34:04;3.85;;;1.17;;
63008;SDS011;49099;28.428;-16.488;2022-09-09T07:36:32;2.75;;;0.88;;
63008;SDS011;49099;28.428;-16.488;2022-09-09T07:39:11;4.85;;;1.10;;
63008;SDS011;49099;28.428;-16.488;2022-09-09T07:41:44;5.90;;;1.00;;
63008;SDS011;49099;28.428;-16.488;2022-09-09T07:44:14;4.00;;;0.90;;
63008;SDS011;49099;28.428;-16.488;2022-09-09T07:46:43;4.88;;;0.88;;
63008;SDS011;49099;28.428;-16.488;2022-09-09T07:49:12;3.85;;;1.00;;
63008;SDS011;49099;28.428;-16.488;2022-09-09T07:51:44;4.63;;;1.00;;
63008;SDS011;49099;28.428;-16.488;2022-09-09T07:54:14;4.13;;;1.00;;
63008;SDS011;49099;28.428;-16.488;2022-09-09T07:56:42;6.65;;;1.08;;
63008;SDS011;49099;28.428;-16.488;2022-09-09T07:59:09;3.40;;;1.08;;
63008;SDS011;49099;28.428;-16.488;2022-09-09T08:01:39;3.15;;;1.00;;
63008;SDS011;49099;28.428;-16.488;2022-09-09T08:04:12;7.90;;;1.23;;
63008;SDS011;49099;28.428;-16.488;2022-09-09T08:06:46;5.60;;;1.35;;
63008;SDS011;49099;28.428;-16.488;2022-09-09T08:09:19;6.90;;;1.27;;
63008;SDS011;49099;28.428;-16.488;2022-09-09T08:11:47;5.18;;;1.40;;
63008;SDS011;49099;28.428;-16.488;2022-09-09T08:14:15;3.90;;;1.20;;
63008;SDS011;49099;28.428;-16.488;2022-09-09T08:16:43;3.28;;;1.15;;
63008;SDS011;49099;28.428;-16.488;2022-09-09T08:19:11;4.47;;;1.20;;
63008;SDS011;49099;28.428;-16.488;2022-09-09T08:21:39;7.97;;;1.30;;
63008;SDS011;49099;28.428;-16.488;2022-09-09T08:24:08;6.25;;;1.20;;
63008;SDS011;49099;28.428;-16.488;2022-09-09T08:26:41;5.53;;;1.30;;
63008;SDS011;49099;28.428;-16.488;2022-09-09T08:29:15;6.03;;;1.20;;
63008;SDS011;49099;28.428;-16.488;2022-09-09T08:31:44;6.95;;;1.40;;
63008;SDS011;49099;28.428;-16.488;2022-09-09T08:34:13;8.20;;;1.65;;
63008;SDS011;49099;28.428;-16.488;2022-09-09T08:36:42;7.43;;;1.70;;
63008;SDS011;49099;28.428;-16.488;2022-09-09T08:39:11;8.30;;;1.50;;
63008;SDS011;49099;28.428;-16.488;2022-09-09T08:44:23;13.02;;;2.20;;
63008;SDS011;49099;28.428;-16.488;2022-09-09T08:47:07;10.65;;;1.92;;
63008;SDS011;49099;28.428;-16.488;2022-09-09T08:52:57;6.57;;;1.70;;
63008;SDS011;49099;28.428;-16.488;2022-09-09T08:58:29;9.65;;;1.80;;
63008;SDS011;49099;28.428;-16.488;2022-09-09T09:03:57;5.45;;;1.40;;
63008;SDS011;49099;28.428;-16.488;2022-09-09T09:12:26;7.30;;;1.60;;
63008;SDS011;49099;28.428;-16.488;2022-09-09T09:15:41;8.90;;;1.60;;
63008;SDS011;49099;28.428;-16.488;2022-09-09T09:18:04;10.93;;;1.67;;
63008;SDS011;49099;28.428;-16.488;2022-09-09T09:20:40;11.32;;;1.92;;
63008;SDS011;49099;28.428;-16.488;2022-09-09T09:23:22;8.45;;;1.80;;
63008;SDS011;49099;28.428;-16.488;2022-09-09T09:25:56;12.57;;;2.20;;
63008;SDS011;49099;28.428;-16.488;2022-09-09T09:28:27;15.80;;;1.90;;
63008;SDS011;49099;28.428;-16.488;2022-09-09T09:31:03;11.60;;;2.38;;
63008;SDS011;49099;28.428;-16.488;2022-09-09T09:33:49;12.93;;;2.38;;
63008;SDS011;49099;28.428;-16.488;2022-09-09T09:36:20;13.77;;;2.33;;
63008;SDS011;49099;28.428;-16.488;2022-09-09T09:38:59;10.15;;;1.98;;
63008;SDS011;49099;28.428;-16.488;2022-09-09T09:41:48;12.10;;;1.90;;
63008;SDS011;49099;28.428;-16.488;2022-09-09T09:44:29;10.77;;;2.20;;
63008;SDS011;49099;28.428;-16.488;2022-09-09T09:47:14;7.05;;;1.48;;
63008;SDS011;49099;28.428;-16.488;2022-09-09T09:49:52;7.43;;;1.70;;
63008;SDS011;49099;28.428;-16.488;2022-09-09T09:52:29;10.35;;;1.50;;
63008;SDS011;49099;28.428;-16.488;2022-09-09T09:54:57;8.63;;;1.50;;
63008;SDS011;49099;28.428;-16.488;2022-09-09T09:57:33;9.57;;;2.25;;
63008;SDS011;49099;28.428;-16.488;2022-09-09T10:00:14;9.07;;;1.60;;
63008;SDS011;49099;28.428;-16.488;2022-09-09T10:02:49;8.90;;;1.90;;
63008;SDS011;49099;28.428;-16.488;2022-09-09T10:05:21;8.20;;;1.88;;
63008;SDS011;49099;28.428;-16.488;2022-09-09T10:08:02;9.75;;;1.98;;
63008;SDS011;49099;28.428;-16.488;2022-09-09T10:16:09;12.10;;;2.00;;
63008;SDS011;49099;28.428;-16.488;2022-09-09T10:33:04;9.73;;;1.90;;
63008;SDS011;49099;28.428;-16.488;2022-09-09T10:36:02;9.98;;;1.80;;
63008;SDS011;49099;28.428;-16.488;2022-09-09T10:38:46;11.07;;;2.00;;
63008;SDS011;49099;28.428;-16.488;2022-09-09T10:46:51;9.03;;;1.80;;
63008;SDS011;49099;28.428;-16.488;2022-09-09T10:55:06;8.27;;;1.50;;
63008;SDS011;49099;28.428;-16.488;2022-09-09T10:57:40;10.70;;;1.58;;
63008;SDS011;49099;28.428;-16.488;2022-09-09T11:00:20;8.93;;;1.65;;
63008;SDS011;49099;28.428;-16.488;2022-09-09T11:02:54;8.13;;;1.90;;
63008;SDS011;49099;28.428;-16.488;2022-09-09T11:05:28;8.77;;;1.77;;
63008;SDS011;49099;28.428;-16.488;2022-09-09T11:08:05;9.48;;;1.90;;
63008;SDS011;49099;28.428;-16.488;2022-09-09T11:13:19;13.82;;;2.17;;
63008;SDS011;49099;28.428;-16.488;2022-09-09T11:15:54;10.48;;;1.75;;
63008;SDS011;49099;28.428;-16.488;2022-09-09T11:18:28;8.25;;;1.85;;
63008;SDS011;49099;28.428;-16.488;2022-09-09T11:20:59;15.18;;;2.17;;
63008;SDS011;49099;28.428;-16.488;2022-09-09T11:23:45;10.85;;;2.08;;
63008;SDS011;49099;28.428;-16.488;2022-09-09T11:26:21;10.07;;;2.00;;
63008;SDS011;49099;28.428;-16.488;2022-09-09T11:40:41;10.57;;;1.90;;
63008;SDS011;49099;28.428;-16.488;2022-09-09T11:43:12;12.95;;;1.92;;
63008;SDS011;49099;28.428;-16.488;2022-09-09T11:45:41;10.95;;;2.10;;
63008;SDS011;49099;28.428;-16.488;2022-09-09T11:51:07;11.57;;;2.30;;
63008;SDS011;49099;28.428;-16.488;2022-09-09T11:53:55;12.80;;;2.10;;
63008;SDS011;49099;28.428;-16.488;2022-09-09T11:56:32;13.20;;;1.95;;
63008;SDS011;49099;28.428;-16.488;2022-09-09T11:59:02;14.18;;;2.10;;
63008;SDS011;49099;28.428;-16.488;2022-09-09T12:01:36;13.05;;;1.95;;
63008;SDS011;49099;28.428;-16.488;2022-09-09T12:06:57;11.75;;;2.20;;
63008;SDS011;49099;28.428;-16.488;2022-09-09T12:12:21;11.43;;;2.05;;
63008;SDS011;49099;28.428;-16.488;2022-09-09T12:15:18;12.75;;;1.75;;
63008;SDS011;49099;28.428;-16.488;2022-09-09T12:17:48;16.38;;;2.05;;
63008;SDS011;49099;28.428;-16.488;2022-09-09T12:20:21;8.90;;;1.65;;
63008;SDS011;49099;28.428;-16.488;2022-09-09T12:28:18;12.35;;;2.45;;
63008;SDS011;49099;28.428;-16.488;2022-09-09T12:33:33;9.35;;;2.15;;
63008;SDS011;49099;28.428;-16.488;2022-09-09T12:36:02;10.45;;;1.75;;
63008;SDS011;49099;28.428;-16.488;2022-09-09T12:38:34;15.02;;;1.88;;
63008;SDS011;49099;28.428;-16.488;2022-09-09T12:41:05;8.57;;;2.03;;
63008;SDS011;49099;28.428;-16.488;2022-09-09T12:43:32;10.77;;;1.67;;
63008;SDS011;49099;28.428;-16.488;2022-09-09T12:46:00;8.63;;;1.55;;
63008;SDS011;49099;28.428;-16.488;2022-09-09T12:48:36;9.00;;;1.83;;
63008;SDS011;49099;28.428;-16.488;2022-09-09T12:51:18;11.82;;;2.05;;
63008;SDS011;49099;28.428;-16.488;2022-09-09T12:53:51;7.28;;;2.03;;
63008;SDS011;49099;28.428;-16.488;2022-09-09T12:56:20;14.27;;;1.70;;
63008;SDS011;49099;28.428;-16.488;2022-09-09T12:58:50;9.02;;;1.73;;
63008;SDS011;49099;28.428;-16.488;2022-09-09T13:01:25;14.65;;;2.25;;
63008;SDS011;49099;28.428;-16.488;2022-09-09T13:03:56;9.88;;;1.90;;
63008;SDS011;49099;28.428;-16.488;2022-09-09T13:08:56;16.98;;;1.98;;
63008;SDS011;49099;28.428;-16.488;2022-09-09T13:14:13;7.38;;;1.75;;
63008;SDS011;49099;28.428;-16.488;2022-09-09T13:17:04;12.65;;;1.98;;
63008;SDS011;49099;28.428;-16.488;2022-09-09T13:19:34;8.40;;;1.67;;
63008;SDS011;49099;28.428;-16.488;2022-09-09T13:22:13;15.10;;;2.70;;
63008;SDS011;49099;28.428;-16.488;2022-09-09T13:24:57;9.90;;;1.90;;
63008;SDS011;49099;28.428;-16.488;2022-09-09T13:27:33;9.05;;;2.00;;
63008;SDS011;49099;28.428;-16.488;2022-09-09T13:30:19;9.10;;;1.80;;
63008;SDS011;49099;28.428;-16.488;2022-09-09T13:35:47;10.40;;;2.03;;
63008;SDS011;49099;28.428;-16.488;2022-09-09T13:38:23;8.73;;;1.77;;
63008;SDS011;49099;28.428;-16.488;2022-09-09T13:40:59;10.25;;;1.70;;
63008;SDS011;49099;28.428;-16.488;2022-09-09T13:43:34;7.45;;;1.80;;
63008;SDS011;49099;28.428;-16.488;2022-09-09T13:46:05;9.48;;;1.70;;
63008;SDS011;49099;28.428;-16.488;2022-09-09T13:48:57;11.63;;;1.73;;
63008;SDS011;49099;28.428;-16.488;2022-09-09T13:51:32;13.73;;;2.13;;
63008;SDS011;49099;28.428;-16.488;2022-09-09T13:54:00;11.75;;;1.90;;
63008;SDS011;49099;28.428;-16.488;2022-09-09T13:56:27;10.57;;;1.92;;
63008;SDS011;49099;28.428;-16.488;2022-09-09T13:58:55;11.13;;;2.00;;
63008;SDS011;49099;28.428;-16.488;2022-09-09T14:01:25;10.05;;;2.08;;
63008;SDS011;49099;28.428;-16.488;2022-09-09T14:03:55;9.65;;;1.70;;
63008;SDS011;49099;28.428;-16.488;2022-09-09T14:06:22;15.23;;;1.90;;
63008;SDS011;49099;28.428;-16.488;2022-09-09T14:08:50;9.48;;;1.70;;
63008;SDS011;49099;28.428;-16.488;2022-09-09T14:11:18;7.57;;;1.70;;
63008;SDS011;49099;28.428;-16.488;2022-09-09T14:13:45;11.70;;;2.35;;
63008;SDS011;49099;28.428;-16.488;2022-09-09T14:16:13;15.30;;;2.20;;
63008;SDS011;49099;28.428;-16.488;2022-09-09T14:18:40;10.13;;;2.03;;
63008;SDS011;49099;28.428;-16.488;2022-09-09T14:21:07;8.52;;;2.00;;
63008;SDS011;49099;28.428;-16.488;2022-09-09T14:23:35;9.00;;;1.83;;
63008;SDS011;49099;28.428;-16.488;2022-09-09T14:26:02;9.43;;;2.17;;
63008;SDS011;49099;28.428;-16.488;2022-09-09T14:28:30;7.25;;;1.50;;
63008;SDS011;49099;28.428;-16.488;2022-09-09T14:31:17;8.57;;;1.92;;
63008;SDS011;49099;28.428;-16.488;2022-09-09T14:33:44;9.77;;;1.80;;
63008;SDS011;49099;28.428;-16.488;2022-09-09T14:36:12;7.28;;;2.00;;
63008;SDS011;49099;28.428;-16.488;2022-09-09T14:38:39;8.75;;;1.77;;
63008;SDS011;49099;28.428;-16.488;2022-09-09T14:41:06;9.95;;;2.08;;
63008;SDS011;49099;28.428;-16.488;2022-09-09T14:43:37;8.07;;;1.65;;
63008;SDS011;49099;28.428;-16.488;2022-09-09T14:46:05;13.13;;;2.20;;
63008;SDS011;49099;28.428;-16.488;2022-09-09T14:48:34;11.20;;;1.83;;
63008;SDS011;49099;28.428;-16.488;2022-09-09T14:51:06;8.85;;;1.92;;
63008;SDS011;49099;28.428;-16.488;2022-09-09T14:53:40;12.02;;;2.08;;
63008;SDS011;49099;28.428;-16.488;2022-09-09T14:56:11;9.32;;;1.92;;
63008;SDS011;49099;28.428;-16.488;2022-09-09T14:58:41;8.98;;;2.08;;
63008;SDS011;49099;28.428;-16.488;2022-09-09T15:01:10;12.88;;;1.83;;
63008;SDS011;49099;28.428;-16.488;2022-09-09T15:03:39;12.57;;;2.10;;
63008;SDS011;49099;28.428;-16.488;2022-09-09T15:06:09;11.48;;;1.73;;
63008;SDS011;49099;28.428;-16.488;2022-09-09T15:08:38;8.40;;;1.92;;
63008;SDS011;49099;28.428;-16.488;2022-09-09T15:11:08;10.48;;;2.00;;
63008;SDS011;49099;28.428;-16.488;2022-09-09T15:13:39;13.95;;;2.08;;
63008;SDS011;49099;28.428;-16.488;2022-09-09T15:16:10;11.77;;;2.35;;
63008;SDS011;49099;28.428;-16.488;2022-09-09T15:18:42;11.77;;;2.15;;
63008;SDS011;49099;28.428;-16.488;2022-09-09T15:21:11;9.18;;;1.90;;
63008;SDS011;49099;28.428;-16.488;2022-09-09T15:23:40;9.15;;;1.95;;
63008;SDS011;49099;28.428;-16.488;2022-09-09T15:26:07;12.20;;;1.85;;
63008;SDS011;49099;28.428;-16.488;2022-09-09T15:28:36;10.13;;;1.85;;
63008;SDS011;49099;28.428;-16.488;2022-09-09T15:31:06;9.80;;;1.85;;
63008;SDS011;49099;28.428;-16.488;2022-09-09T15:33:38;9.43;;;2.05;;
63008;SDS011;49099;28.428;-16.488;2022-09-09T15:36:15;12.27;;;2.00;;
63008;SDS011;49099;28.428;-16.488;2022-09-09T15:38:47;11.30;;;2.17;;
63008;SDS011;49099;28.428;-16.488;2022-09-09T15:41:15;13.65;;;2.10;;
63008;SDS011;49099;28.428;-16.488;2022-09-09T15:43:44;13.32;;;2.28;;
63008;SDS011;49099;28.428;-16.488;2022-09-09T15:49:13;11.98;;;1.95;;
63008;SDS011;49099;28.428;-16.488;2022-09-09T15:51:47;10.63;;;1.90;;
63008;SDS011;49099;28.428;-16.488;2022-09-09T15:54:19;11.38;;;2.30;;
63008;SDS011;49099;28.428;-16.488;2022-09-09T15:56:53;11.15;;;2.13;;
63008;SDS011;49099;28.428;-16.488;2022-09-09T15:59:25;13.75;;;2.00;;
63008;SDS011;49099;28.428;-16.488;2022-09-09T16:01:57;12.88;;;2.13;;
63008;SDS011;49099;28.428;-16.488;2022-09-09T16:04:26;11.82;;;2.30;;
63008;SDS011;49099;28.428;-16.488;2022-09-09T16:06:57;11.45;;;2.28;;
63008;SDS011;49099;28.428;-16.488;2022-09-09T16:09:31;10.30;;;2.10;;
63008;SDS011;49099;28.428;-16.488;2022-09-09T16:11:59;8.52;;;1.92;;
63008;SDS011;49099;28.428;-16.488;2022-09-09T16:14:27;12.10;;;2.20;;
63008;SDS011;49099;28.428;-16.488;2022-09-09T16:16:55;12.35;;;2.28;;
63008;SDS011;49099;28.428;-16.488;2022-09-09T16:19:23;11.50;;;3.08;;
63008;SDS011;49099;28.428;-16.488;2022-09-09T16:21:50;13.25;;;2.35;;
63008;SDS011;49099;28.428;-16.488;2022-09-09T16:24:18;16.00;;;2.88;;
63008;SDS011;49099;28.428;-16.488;2022-09-09T16:26:47;9.68;;;2.25;;
63008;SDS011;49099;28.428;-16.488;2022-09-09T16:29:17;11.43;;;2.20;;
63008;SDS011;49099;28.428;-16.488;2022-09-09T16:31:45;9.95;;;2.13;;
63008;SDS011;49099;28.428;-16.488;2022-09-09T16:34:14;12.57;;;2.60;;
63008;SDS011;49099;28.428;-16.488;2022-09-09T16:36:44;16.45;;;2.85;;
63008;SDS011;49099;28.428;-16.488;2022-09-09T16:39:12;11.02;;;2.40;;
63008;SDS011;49099;28.428;-16.488;2022-09-09T16:41:41;12.68;;;2.92;;
63008;SDS011;49099;28.428;-16.488;2022-09-09T16:44:11;15.20;;;2.78;;
63008;SDS011;49099;28.428;-16.488;2022-09-09T16:46:40;13.32;;;2.60;;
63008;SDS011;49099;28.428;-16.488;2022-09-09T16:49:10;10.07;;;2.42;;
63008;SDS011;49099;28.428;-16.488;2022-09-09T16:51:45;12.48;;;2.83;;
63008;SDS011;49099;28.428;-16.488;2022-09-09T16:54:14;15.43;;;2.55;;
63008;SDS011;49099;28.428;-16.488;2022-09-09T16:56:44;13.35;;;2.55;;
63008;SDS011;49099;28.428;-16.488;2022-09-09T16:59:13;10.18;;;2.40;;
63008;SDS011;49099;28.428;-16.488;2022-09-09T17:01:43;10.80;;;2.35;;
63008;SDS011;49099;28.428;-16.488;2022-09-09T17:04:13;14.00;;;2.33;;
63008;SDS011;49099;28.428;-16.488;2022-09-09T17:06:47;11.70;;;2.17;;
63008;SDS011;49099;28.428;-16.488;2022-09-09T17:09:16;12.35;;;2.35;;
63008;SDS011;49099;28.428;-16.488;2022-09-09T17:11:45;10.07;;;2.42;;
63008;SDS011;49099;28.428;-16.488;2022-09-09T17:14:14;11.40;;;2.78;;
63008;SDS011;49099;28.428;-16.488;2022-09-09T17:16:43;12.65;;;2.40;;